Time;durP1;ratioP1;P1;durP2;ratioP2;P2;SDS_P1;SDS_P2;PMS_P1;PMS_P2;Temp;Humidity;BMP_temperature;BMP_pressure;BME280_temperature;BME280_humidity;BME280_pressure;Samples;Min_cycle;Max_cycle;Signal;HPM_P1;HPM_P2
2023/11/03 00:00:19;;;;;;;0.10;0.10;;;9.80;99.90;;;;;;5028817;28;20049;-63
2023/11/03 00:02:45;;;;;;;2.70;0.28;;;9.70;99.90;;;;;;5042131;28;20064;-63
2023/11/03 00:05:12;;;;;;;0.45;0.08;;;9.60;99.90;;;;;;5043465;28;20056;-63
2023/11/03 00:07:39;;;;;;;1.15;0.28;;;9.50;99.90;;;;;;5025430;28;20453;-63
2023/11/03 00:10:06;;;;;;;0.22;0.08;;;9.30;99.90;;;;;;5042696;28;20045;-64
2023/11/03 00:12:35;;;;;;;0.65;0.10;;;9.20;99.90;;;;;;5045383;28;20061;-64
2023/11/03 00:15:01;;;;;;;0.00;0.00;;;9.10;99.90;;;;;;5046753;28;20041;-65
2023/11/03 00:17:27;;;;;;;0.28;0.28;;;8.90;99.90;;;;;;5045039;28;20052;-66
2023/11/03 00:19:53;;;;;;;2.00;0.20;;;8.80;99.90;;;;;;5040862;28;20045;-66
2023/11/03 00:22:18;;;;;;;1.42;0.17;;;8.70;99.90;;;;;;5038611;28;20056;-66
2023/11/03 00:24:44;;;;;;;0.30;0.17;;;8.50;99.90;;;;;;5031580;28;20072;-66
2023/11/03 00:27:10;;;;;;;0.50;0.05;;;8.40;99.90;;;;;;5046931;28;20045;-67
2023/11/03 00:29:37;;;;;;;0.10;0.10;;;8.30;99.90;;;;;;5045660;28;20115;-67
2023/11/03 00:32:03;;;;;;;0.28;0.20;;;8.20;99.90;;;;;;5043922;28;20048;-66
2023/11/03 00:34:29;;;;;;;0.10;0.10;;;8.10;99.90;;;;;;5044861;28;20076;-66
2023/11/03 00:36:55;;;;;;;1.13;0.13;;;8.00;99.90;;;;;;5045236;28;20069;-67
2023/11/03 00:39:21;;;;;;;0.15;0.13;;;7.90;99.90;;;;;;5045394;28;20041;-66
2023/11/03 00:41:49;;;;;;;0.75;0.15;;;7.80;99.90;;;;;;5043776;28;20526;-66
2023/11/03 00:44:15;;;;;;;0.00;0.00;;;7.90;99.90;;;;;;5046619;28;20453;-66
2023/11/03 00:46:42;;;;;;;0.10;0.00;;;7.80;99.90;;;;;;5044191;28;20380;-66
2023/11/03 00:49:09;;;;;;;0.13;0.10;;;7.80;99.90;;;;;;5047084;28;20060;-66
2023/11/03 00:51:36;;;;;;;0.85;0.20;;;7.80;99.90;;;;;;5043061;28;20106;-66
2023/11/03 00:54:06;;;;;;;1.08;0.20;;;7.80;99.90;;;;;;5028428;28;20033;-66
2023/11/03 00:56:33;;;;;;;0.22;0.17;;;7.80;99.90;;;;;;5046333;28;20077;-66
2023/11/03 00:59:00;;;;;;;0.00;0.00;;;7.90;99.90;;;;;;5045517;28;20045;-65
2023/11/03 01:01:25;;;;;;;0.63;0.10;;;7.90;99.90;;;;;;5045230;28;20041;-65
2023/11/03 01:03:53;;;;;;;1.27;0.25;;;7.90;99.90;;;;;;5045420;28;20049;-65
2023/11/03 01:06:19;;;;;;;0.00;0.00;;;7.90;99.90;;;;;;5046297;28;20081;-65
2023/11/03 01:08:44;;;;;;;0.00;0.00;;;7.90;99.90;;;;;;5030169;28;20052;-65
2023/11/03 01:11:12;;;;;;;0.10;0.00;;;8.00;99.90;;;;;;5046466;28;20049;-65
2023/11/03 01:13:38;;;;;;;0.00;0.00;;;8.00;99.90;;;;;;5046123;28;20068;-65
2023/11/03 01:16:08;;;;;;;0.65;0.13;;;8.00;99.90;;;;;;5045524;28;20049;-65
2023/11/03 01:18:42;;;;;;;0.13;0.13;;;8.10;99.90;;;;;;5045910;28;20486;-65
2023/11/03 01:21:18;;;;;;;3.08;0.10;;;8.10;99.90;;;;;;5048912;28;20147;-65
2023/11/03 01:23:47;;;;;;;0.50;0.20;;;8.10;99.90;;;;;;5050377;28;20045;-65
2023/11/03 01:26:14;;;;;;;2.30;0.25;;;8.10;99.90;;;;;;5049120;28;20056;-65
2023/11/03 01:28:41;;;;;;;0.43;0.20;;;8.10;99.90;;;;;;5049127;28;20045;-65
2023/11/03 01:31:09;;;;;;;0.80;0.10;;;8.20;99.90;;;;;;5050030;28;20052;-65
2023/11/03 01:33:35;;;;;;;0.32;0.15;;;8.20;99.90;;;;;;5048262;28;20251;-65
2023/11/03 01:36:05;;;;;;;0.47;0.10;;;8.20;99.90;;;;;;5048741;28;20049;-65
2023/11/03 01:38:31;;;;;;;1.60;0.10;;;8.20;99.90;;;;;;5048114;28;20041;-65
2023/11/03 01:41:01;;;;;;;2.05;0.30;;;8.20;99.90;;;;;;5048863;28;20151;-65
2023/11/03 01:43:28;;;;;;;0.35;0.20;;;8.30;99.90;;;;;;5048297;28;20048;-65
2023/11/03 01:45:56;;;;;;;1.38;0.30;;;8.30;99.90;;;;;;5048911;28;20033;-65
2023/11/03 01:48:23;;;;;;;0.10;0.10;;;8.30;99.90;;;;;;5035391;28;20130;-65
2023/11/03 01:50:49;;;;;;;0.98;0.70;;;8.40;99.90;;;;;;5047462;28;20051;-65
2023/11/03 01:53:16;;;;;;;0.10;0.10;;;8.30;99.90;;;;;;5048281;28;20052;-65
2023/11/03 01:55:45;;;;;;;0.85;0.25;;;8.40;99.90;;;;;;5047034;28;20186;-65
2023/11/03 01:58:11;;;;;;;0.32;0.30;;;8.40;99.90;;;;;;5047337;28;20056;-65
2023/11/03 02:00:37;;;;;;;1.70;0.22;;;8.40;99.90;;;;;;5033804;28;20415;-65
2023/11/03 02:03:03;;;;;;;0.15;0.10;;;8.40;99.90;;;;;;5038350;28;20392;-65
2023/11/03 02:05:29;;;;;;;1.33;0.20;;;8.50;99.90;;;;;;5043548;28;20056;-65
2023/11/03 02:07:55;;;;;;;0.80;0.15;;;8.50;99.90;;;;;;5040944;28;20045;-65
2023/11/03 02:10:21;;;;;;;0.88;0.20;;;8.50;99.90;;;;;;5042573;28;20049;-65
2023/11/03 02:12:46;;;;;;;0.40;0.25;;;8.50;99.90;;;;;;5047186;28;20052;-65
2023/11/03 02:15:13;;;;;;;0.75;0.22;;;8.50;99.90;;;;;;5048998;28;20053;-65
2023/11/03 02:17:40;;;;;;;0.90;0.30;;;8.60;99.90;;;;;;5047980;28;20131;-65
2023/11/03 02:20:07;;;;;;;0.35;0.35;;;8.50;99.90;;;;;;5047747;28;20041;-64
2023/11/03 02:22:34;;;;;;;1.00;0.45;;;8.50;99.90;;;;;;5046770;28;20443;-65
2023/11/03 02:25:00;;;;;;;0.15;0.15;;;8.60;99.90;;;;;;5048293;28;20092;-65
2023/11/03 02:27:26;;;;;;;0.60;0.30;;;8.60;99.90;;;;;;5047231;28;20431;-65
2023/11/03 02:29:52;;;;;;;2.13;0.60;;;8.60;99.90;;;;;;5048010;28;20042;-65
2023/11/03 02:32:18;;;;;;;0.40;0.25;;;8.60;99.90;;;;;;5047311;28;20059;-65
2023/11/03 02:34:43;;;;;;;0.77;0.40;;;8.60;99.90;;;;;;5031613;28;20044;-65
2023/11/03 02:37:09;;;;;;;0.73;0.40;;;8.60;99.90;;;;;;5048962;28;20076;-65
2023/11/03 02:39:36;;;;;;;0.15;0.15;;;8.60;99.90;;;;;;5046149;28;20049;-65
2023/11/03 02:42:04;;;;;;;0.30;0.30;;;8.50;99.90;;;;;;5048495;28;20048;-65
2023/11/03 02:44:30;;;;;;;0.30;0.20;;;8.60;99.90;;;;;;5046450;28;20402;-65
2023/11/03 02:46:56;;;;;;;0.88;0.40;;;8.50;99.90;;;;;;5047589;28;20045;-65
2023/11/03 02:49:21;;;;;;;0.45;0.30;;;8.60;99.90;;;;;;5048743;28;20096;-65
2023/11/03 02:51:47;;;;;;;0.40;0.17;;;8.60;99.90;;;;;;5047044;28;20169;-65
2023/11/03 02:54:14;;;;;;;1.63;0.28;;;8.60;99.90;;;;;;5048202;28;20573;-65
2023/11/03 02:56:40;;;;;;;4.80;0.50;;;8.50;99.90;;;;;;5044388;28;20487;-65
2023/11/03 02:59:06;;;;;;;0.38;0.30;;;8.60;99.90;;;;;;5048523;28;20124;-65
2023/11/03 03:01:32;;;;;;;0.63;0.38;;;8.50;99.90;;;;;;5047779;28;20053;-65
2023/11/03 03:03:58;;;;;;;0.43;0.35;;;8.50;99.90;;;;;;5045764;28;20083;-65
2023/11/03 03:06:24;;;;;;;0.30;0.30;;;8.50;99.90;;;;;;5048324;28;20040;-65
2023/11/03 03:08:50;;;;;;;0.10;0.10;;;8.50;99.90;;;;;;5046342;28;20052;-65
2023/11/03 03:11:15;;;;;;;0.40;0.20;;;8.50;99.90;;;;;;5046859;28;20084;-65
2023/11/03 03:13:43;;;;;;;0.30;0.30;;;8.60;99.90;;;;;;5045286;28;20040;-65
2023/11/03 03:16:09;;;;;;;0.60;0.30;;;8.60;99.90;;;;;;5047713;28;20060;-65
2023/11/03 03:18:35;;;;;;;0.40;0.35;;;8.50;99.90;;;;;;5045856;28;20052;-65
2023/11/03 03:21:01;;;;;;;0.10;0.10;;;8.60;99.90;;;;;;5046333;28;20450;-65
2023/11/03 03:23:27;;;;;;;2.20;0.55;;;8.60;99.90;;;;;;5047974;28;20033;-65
2023/11/03 03:25:53;;;;;;;0.70;0.40;;;8.60;99.90;;;;;;5045818;28;20055;-65
2023/11/03 03:28:19;;;;;;;0.98;0.30;;;8.60;99.90;;;;;;5047981;28;20048;-65
2023/11/03 03:30:44;;;;;;;0.52;0.22;;;8.60;99.90;;;;;;5045070;28;20048;-65
2023/11/03 03:33:10;;;;;;;2.55;0.32;;;8.60;99.90;;;;;;5047972;28;20075;-65
2023/11/03 03:35:36;;;;;;;0.63;0.25;;;8.60;99.90;;;;;;5044908;28;20036;-65
2023/11/03 03:38:01;;;;;;;0.22;0.22;;;8.60;99.90;;;;;;5043539;28;20053;-65
2023/11/03 03:40:27;;;;;;;3.95;0.30;;;8.60;99.90;;;;;;5035990;28;20110;-65
2023/11/03 03:42:53;;;;;;;0.85;0.30;;;8.60;99.90;;;;;;5044576;28;20069;-65
2023/11/03 03:45:18;;;;;;;1.23;0.40;;;8.60;99.90;;;;;;5047683;28;20062;-65
2023/11/03 03:47:44;;;;;;;0.50;0.38;;;8.60;99.90;;;;;;5044471;28;20059;-65
2023/11/03 03:50:10;;;;;;;0.25;0.25;;;8.60;99.90;;;;;;5047873;28;20045;-65
2023/11/03 03:52:36;;;;;;;0.63;0.25;;;8.60;99.90;;;;;;5044767;28;20052;-65
2023/11/03 03:55:02;;;;;;;2.08;0.30;;;8.60;99.90;;;;;;5047231;28;20403;-65
2023/11/03 03:57:28;;;;;;;1.38;0.32;;;8.60;99.90;;;;;;5046984;28;20045;-65
2023/11/03 03:59:53;;;;;;;0.63;0.30;;;8.60;99.90;;;;;;5045028;28;20055;-65
2023/11/03 04:02:19;;;;;;;1.85;0.50;;;8.60;99.90;;;;;;5045836;28;20550;-65
2023/11/03 04:04:45;;;;;;;0.65;0.35;;;8.60;99.90;;;;;;5045864;28;20131;-65
2023/11/03 04:07:11;;;;;;;2.70;0.50;;;8.70;99.90;;;;;;5045944;28;20186;-65
2023/11/03 04:09:40;;;;;;;1.13;0.45;;;8.60;99.90;;;;;;5045723;28;20041;-65
2023/11/03 04:12:07;;;;;;;2.88;0.50;;;8.60;99.90;;;;;;5047130;28;20140;-65
2023/11/03 04:14:32;;;;;;;0.63;0.25;;;8.70;99.90;;;;;;5045236;28;20041;-65
2023/11/03 04:16:58;;;;;;;0.47;0.25;;;8.70;99.90;;;;;;5046530;28;20060;-65
2023/11/03 04:19:24;;;;;;;3.97;0.65;;;8.70;99.90;;;;;;5045767;28;20037;-65
2023/11/03 04:21:49;;;;;;;1.95;0.63;;;8.80;99.90;;;;;;5036526;28;20038;-65
2023/11/03 04:24:15;;;;;;;0.88;0.40;;;8.80;99.90;;;;;;5042288;28;20045;-65
2023/11/03 04:26:42;;;;;;;3.58;0.60;;;8.80;99.90;;;;;;5045556;28;20037;-65
2023/11/03 04:29:08;;;;;;;1.02;0.30;;;8.80;99.90;;;;;;5045572;28;20083;-65
2023/11/03 04:31:34;;;;;;;3.70;0.52;;;8.80;99.90;;;;;;5045600;28;20045;-65
2023/11/03 04:34:00;;;;;;;1.17;0.40;;;8.80;99.90;;;;;;5046867;28;20085;-64
2023/11/03 04:36:26;;;;;;;5.00;0.45;;;8.90;99.90;;;;;;5046204;28;20576;-64
2023/11/03 04:38:51;;;;;;;1.38;0.50;;;8.90;99.90;;;;;;5045776;28;20043;-65
2023/11/03 04:41:18;;;;;;;3.40;0.82;;;8.90;99.90;;;;;;5046778;28;20049;-64
2023/11/03 04:43:44;;;;;;;0.90;0.35;;;8.90;99.90;;;;;;5044389;28;20048;-65
2023/11/03 04:46:10;;;;;;;4.03;0.50;;;8.90;99.90;;;;;;5046336;28;20049;-65
2023/11/03 04:48:37;;;;;;;0.77;0.45;;;8.90;99.90;;;;;;5043780;28;20039;-65
2023/11/03 04:51:03;;;;;;;0.70;0.40;;;8.90;99.90;;;;;;5045246;28;20418;-65
2023/11/03 04:53:29;;;;;;;2.05;0.60;;;8.90;99.90;;;;;;5043962;28;20043;-64
2023/11/03 04:55:55;;;;;;;0.77;0.30;;;8.90;99.90;;;;;;5048031;28;20036;-64
2023/11/03 04:58:21;;;;;;;0.95;0.30;;;8.90;99.90;;;;;;5048671;28;20114;-65
2023/11/03 05:00:47;;;;;;;3.70;0.40;;;8.90;99.90;;;;;;5047435;28;20048;-65
2023/11/03 05:03:14;;;;;;;3.33;0.40;;;9.00;99.90;;;;;;5045690;28;20048;-64
2023/11/03 05:05:41;;;;;;;1.10;0.30;;;8.90;99.90;;;;;;5044772;28;20049;-64
2023/11/03 05:08:08;;;;;;;1.10;0.25;;;8.90;99.90;;;;;;5047955;28;20102;-64
2023/11/03 05:10:34;;;;;;;0.80;0.60;;;8.90;99.90;;;;;;5046973;28;20376;-65
2023/11/03 05:13:00;;;;;;;2.83;0.52;;;8.90;99.90;;;;;;5049461;28;20107;-65
2023/11/03 05:15:26;;;;;;;0.70;0.20;;;8.90;99.90;;;;;;5050617;28;20045;-65
2023/11/03 05:17:52;;;;;;;2.38;0.57;;;8.90;99.90;;;;;;5048739;28;20093;-65
2023/11/03 05:20:19;;;;;;;1.27;0.30;;;8.90;99.90;;;;;;5049191;28;20465;-65
2023/11/03 05:22:45;;;;;;;0.65;0.35;;;8.90;99.90;;;;;;5048908;28;20501;-65
2023/11/03 05:25:12;;;;;;;3.42;0.50;;;8.90;99.90;;;;;;5048400;28;20392;-66
2023/11/03 05:27:38;;;;;;;1.55;0.30;;;8.90;99.90;;;;;;5047807;28;20076;-66
2023/11/03 05:30:05;;;;;;;0.32;0.20;;;8.90;99.90;;;;;;5049280;28;20088;-65
2023/11/03 05:32:31;;;;;;;4.75;0.47;;;8.80;99.90;;;;;;5047322;28;20049;-65
2023/11/03 05:34:59;;;;;;;3.05;0.57;;;8.90;99.90;;;;;;5046623;28;20052;-65
2023/11/03 05:37:26;;;;;;;3.10;0.50;;;8.80;99.90;;;;;;5040571;28;20049;-66
2023/11/03 05:39:52;;;;;;;1.65;0.32;;;8.80;99.90;;;;;;5039437;28;20488;-66
2023/11/03 05:42:18;;;;;;;0.20;0.20;;;8.80;99.90;;;;;;5039844;28;20049;-65
2023/11/03 05:44:44;;;;;;;2.08;0.35;;;8.80;99.90;;;;;;5037053;28;20118;-66
2023/11/03 05:47:09;;;;;;;4.82;0.38;;;8.80;99.90;;;;;;5035033;28;20045;-66
2023/11/03 05:49:35;;;;;;;1.42;0.38;;;8.80;99.90;;;;;;5038524;28;20063;-65
2023/11/03 05:52:01;;;;;;;0.77;0.30;;;8.80;99.90;;;;;;5036278;28;20049;-65
2023/11/03 05:54:27;;;;;;;2.65;0.45;;;8.80;99.90;;;;;;5040938;28;20047;-65
2023/11/03 05:56:52;;;;;;;2.42;0.50;;;8.70;99.90;;;;;;5063165;28;20090;-65
2023/11/03 05:59:18;;;;;;;2.33;0.63;;;8.80;99.90;;;;;;5041425;28;20046;-65
2023/11/03 06:01:44;;;;;;;0.77;0.28;;;8.70;99.90;;;;;;5056857;28;20133;-65
2023/11/03 06:04:10;;;;;;;0.70;0.47;;;8.70;99.90;;;;;;5039532;28;20057;-65
2023/11/03 06:06:36;;;;;;;3.17;0.40;;;8.70;99.90;;;;;;5039648;28;20055;-65
2023/11/03 06:09:02;;;;;;;2.08;0.47;;;8.70;99.90;;;;;;5040361;28;20044;-65
2023/11/03 06:11:28;;;;;;;1.20;0.50;;;8.80;99.90;;;;;;5049176;28;20045;-65
2023/11/03 06:13:54;;;;;;;0.25;0.25;;;8.70;99.90;;;;;;5048862;28;20067;-65
2023/11/03 06:16:22;;;;;;;1.58;0.50;;;8.80;99.90;;;;;;5046803;28;20045;-65
2023/11/03 06:18:49;;;;;;;0.63;0.35;;;8.80;99.90;;;;;;5040763;28;20045;-65
2023/11/03 06:21:15;;;;;;;3.90;0.60;;;8.70;99.90;;;;;;5048821;28;20444;-65
2023/11/03 06:23:41;;;;;;;0.80;0.30;;;8.80;99.90;;;;;;5047633;28;20120;-65
2023/11/03 06:26:07;;;;;;;2.45;0.43;;;8.80;99.90;;;;;;5047909;28;20513;-65
2023/11/03 06:28:35;;;;;;;1.08;0.30;;;8.80;99.90;;;;;;5048418;28;20045;-65
2023/11/03 06:31:02;;;;;;;3.10;0.38;;;8.80;99.90;;;;;;5046865;28;20053;-65
2023/11/03 06:33:28;;;;;;;1.20;0.50;;;8.90;99.90;;;;;;5035878;28;20045;-65
2023/11/03 06:35:54;;;;;;;10.48;0.80;;;8.80;99.90;;;;;;5047799;28;20549;-65
2023/11/03 06:38:22;;;;;;;4.03;0.90;;;8.90;99.90;;;;;;5048232;28;20124;-65
2023/11/03 06:40:49;;;;;;;0.98;0.70;;;8.90;99.90;;;;;;5044775;28;20147;-65
2023/11/03 06:43:15;;;;;;;2.58;0.77;;;8.90;99.90;;;;;;5044913;28;20698;-65
2023/11/03 06:45:41;;;;;;;2.33;0.65;;;9.00;99.90;;;;;;5037679;28;20076;-65
2023/11/03 06:48:06;;;;;;;0.82;0.30;;;9.00;99.90;;;;;;5047890;28;20047;-65
2023/11/03 06:50:32;;;;;;;1.10;0.40;;;9.00;99.90;;;;;;5048228;28;20055;-65
2023/11/03 06:52:59;;;;;;;0.47;0.30;;;8.90;99.90;;;;;;5062385;28;20067;-65
2023/11/03 06:55:24;;;;;;;1.95;0.60;;;9.00;99.90;;;;;;5048359;28;20478;-65
2023/11/03 06:57:50;;;;;;;4.50;0.57;;;9.00;99.90;;;;;;5045811;28;20095;-65
2023/11/03 07:00:18;;;;;;;0.90;0.40;;;9.00;99.90;;;;;;5047690;28;20067;-65
2023/11/03 07:02:43;;;;;;;0.30;0.30;;;9.00;99.90;;;;;;5046768;28;20033;-65
2023/11/03 07:05:09;;;;;;;0.65;0.30;;;9.00;99.90;;;;;;5043961;28;20580;-65
2023/11/03 07:07:36;;;;;;;4.00;0.50;;;9.00;99.90;;;;;;5046732;28;20045;-65
2023/11/03 07:10:02;;;;;;;1.27;0.25;;;9.00;99.90;;;;;;5043149;28;20076;-65
2023/11/03 07:12:29;;;;;;;1.50;0.70;;;9.00;99.90;;;;;;5043328;28;20057;-65
2023/11/03 07:14:55;;;;;;;0.25;0.25;;;9.00;99.90;;;;;;5044137;28;20049;-65
2023/11/03 07:17:21;;;;;;;0.57;0.30;;;9.00;99.90;;;;;;5044047;28;20087;-65
2023/11/03 07:19:47;;;;;;;2.28;0.50;;;9.00;99.90;;;;;;5043395;28;20372;-65
2023/11/03 07:22:15;;;;;;;0.20;0.20;;;9.00;99.90;;;;;;5062285;28;20436;-65
2023/11/03 07:24:41;;;;;;;0.77;0.57;;;9.00;99.90;;;;;;5041646;28;20056;-65
2023/11/03 07:27:08;;;;;;;0.88;0.50;;;9.00;99.90;;;;;;5032501;28;20057;-65
2023/11/03 07:29:34;;;;;;;1.40;0.40;;;9.00;99.90;;;;;;5037936;28;20396;-65
2023/11/03 07:32:00;;;;;;;1.25;0.60;;;9.10;99.90;;;;;;5030138;28;20138;-65
2023/11/03 07:34:25;;;;;;;0.45;0.45;;;9.00;99.90;;;;;;5036001;28;20063;-65
2023/11/03 07:36:51;;;;;;;2.97;0.85;;;9.00;99.90;;;;;;5013721;28;20053;-66
2023/11/03 07:39:17;;;;;;;2.13;0.60;;;9.00;99.90;;;;;;5036562;28;20052;-65
2023/11/03 07:41:43;;;;;;;0.80;0.60;;;9.00;99.90;;;;;;5031596;28;20046;-65
2023/11/03 07:44:10;;;;;;;4.32;0.65;;;9.00;99.90;;;;;;5034342;28;20045;-65
2023/11/03 07:46:36;;;;;;;3.80;1.23;;;9.00;99.90;;;;;;5033235;28;20542;-65
2023/11/03 07:49:06;;;;;;;1.48;0.60;;;9.00;99.90;;;;;;5030078;28;20049;-65
2023/11/03 07:51:32;;;;;;;2.25;0.90;;;9.10;99.90;;;;;;5035171;28;20443;-65
2023/11/03 07:53:58;;;;;;;6.85;0.80;;;9.00;99.90;;;;;;5031222;28;20045;-65
2023/11/03 07:56:24;;;;;;;6.18;0.98;;;9.10;99.90;;;;;;5044681;28;20160;-65
2023/11/03 07:58:50;;;;;;;4.13;0.93;;;9.10;99.90;;;;;;5030053;28;20092;-65
2023/11/03 08:01:16;;;;;;;4.03;0.70;;;9.10;99.90;;;;;;5043291;28;20545;-65
2023/11/03 08:03:43;;;;;;;2.25;0.82;;;9.00;99.90;;;;;;5042292;28;20048;-65
2023/11/03 08:06:09;;;;;;;6.70;0.70;;;9.10;99.90;;;;;;5044159;28;20041;-66
2023/11/03 08:08:36;;;;;;;1.65;0.60;;;9.20;99.90;;;;;;5041345;28;20060;-66
2023/11/03 08:11:03;;;;;;;2.10;0.60;;;9.10;99.90;;;;;;5044064;28;20510;-65
2023/11/03 08:13:29;;;;;;;1.50;0.80;;;9.10;99.90;;;;;;5046411;28;20056;-66
2023/11/03 08:15:56;;;;;;;3.67;0.88;;;9.20;99.90;;;;;;5044120;28;20045;-65
2023/11/03 08:18:23;;;;;;;2.83;0.57;;;9.10;99.90;;;;;;5026095;28;20596;-66
2023/11/03 08:20:49;;;;;;;5.82;0.70;;;9.10;99.90;;;;;;5043859;28;20060;-66
2023/11/03 08:23:14;;;;;;;3.17;0.73;;;9.20;99.90;;;;;;5045815;28;20033;-66
2023/11/03 08:25:41;;;;;;;2.70;0.95;;;9.20;99.90;;;;;;5043845;28;20045;-65
2023/11/03 08:28:06;;;;;;;1.98;0.93;;;9.10;99.90;;;;;;5043699;28;20094;-65
2023/11/03 08:30:32;;;;;;;1.25;0.60;;;9.20;99.90;;;;;;5048011;28;20442;-65
2023/11/03 08:32:58;;;;;;;3.53;0.73;;;9.20;99.90;;;;;;5047516;28;20048;-65
2023/11/03 08:35:26;;;;;;;0.95;0.60;;;9.10;99.90;;;;;;5049367;28;20483;-65
2023/11/03 08:37:52;;;;;;;4.00;0.60;;;9.20;99.90;;;;;;5030873;28;20041;-65
2023/11/03 08:40:22;;;;;;;5.85;0.60;;;9.20;99.90;;;;;;5049540;28;20053;-65
2023/11/03 08:42:49;;;;;;;1.33;0.60;;;9.20;99.90;;;;;;5049366;28;20120;-65
2023/11/03 08:45:15;;;;;;;2.53;0.60;;;9.20;99.90;;;;;;5046990;28;20049;-66
2023/11/03 08:47:41;;;;;;;2.28;0.70;;;9.30;99.90;;;;;;5049500;28;20073;-66
2023/11/03 08:50:11;;;;;;;2.17;0.68;;;9.30;99.90;;;;;;5045416;28;20634;-65
2023/11/03 08:52:37;;;;;;;1.60;0.50;;;9.40;99.90;;;;;;5048583;28;20049;-65
2023/11/03 08:55:07;;;;;;;2.88;0.93;;;9.40;99.90;;;;;;5046886;28;20433;-66
2023/11/03 08:57:40;;;;;;;2.03;0.90;;;9.40;99.90;;;;;;5049014;28;20056;-65
2023/11/03 09:00:09;;;;;;;3.10;0.80;;;9.40;99.90;;;;;;5046451;28;20087;-65
2023/11/03 09:02:44;;;;;;;4.57;0.70;;;9.40;99.90;;;;;;5047514;28;20040;-65
2023/11/03 09:05:11;;;;;;;4.53;0.90;;;9.40;99.90;;;;;;5046477;28;20061;-65
2023/11/03 09:07:41;;;;;;;4.07;0.80;;;9.60;99.90;;;;;;5047597;28;20064;-65
2023/11/03 09:10:10;;;;;;;2.50;0.90;;;9.60;99.90;;;;;;5048925;28;20123;-65
2023/11/03 09:12:46;;;;;;;3.38;0.60;;;9.60;99.90;;;;;;5035039;28;20194;-65
2023/11/03 09:15:12;;;;;;;2.65;0.80;;;9.70;99.90;;;;;;5040330;28;20131;-65
2023/11/03 09:17:38;;;;;;;5.07;1.13;;;9.70;99.90;;;;;;5049635;28;20049;-65
2023/11/03 09:20:05;;;;;;;2.58;0.73;;;9.60;99.90;;;;;;5031100;28;20506;-65
2023/11/03 09:22:31;;;;;;;4.47;0.60;;;9.70;99.90;;;;;;5049965;28;20033;-65
2023/11/03 09:24:57;;;;;;;3.90;1.00;;;9.80;99.90;;;;;;5048955;28;20094;-65
2023/11/03 09:27:24;;;;;;;4.53;0.98;;;9.90;99.90;;;;;;5050380;28;20053;-65
2023/11/03 09:29:50;;;;;;;2.70;0.77;;;9.80;99.90;;;;;;5048847;28;20109;-65
2023/11/03 09:32:17;;;;;;;4.07;1.05;;;9.90;99.90;;;;;;5031442;28;20057;-65
2023/11/03 09:34:43;;;;;;;5.43;0.90;;;10.00;99.90;;;;;;5047680;28;20647;-65
2023/11/03 09:37:09;;;;;;;7.03;0.90;;;10.10;99.90;;;;;;5049077;28;20391;-65
2023/11/03 09:39:35;;;;;;;6.75;0.93;;;10.20;99.90;;;;;;5047745;28;20049;-65
2023/11/03 09:42:03;;;;;;;6.55;1.00;;;10.20;99.90;;;;;;5047070;28;20091;-65
2023/11/03 09:44:34;;;;;;;3.63;0.90;;;10.30;99.90;;;;;;5047855;28;20364;-64
2023/11/03 09:47:01;;;;;;;4.53;0.93;;;10.20;99.90;;;;;;5035445;28;20832;-65
2023/11/03 09:49:28;;;;;;;7.07;1.05;;;10.20;99.90;;;;;;5049607;28;20045;-65
2023/11/03 09:52:02;;;;;;;7.00;1.50;;;10.20;99.90;;;;;;5049362;28;20604;-65
2023/11/03 09:54:32;;;;;;;2.95;1.00;;;10.20;99.90;;;;;;5048309;28;20433;-65
2023/11/03 09:57:11;;;;;;;8.32;1.65;;;10.30;99.90;;;;;;5049735;28;20457;-65
2023/11/03 09:59:38;;;;;;;3.50;0.80;;;10.40;99.90;;;;;;5027294;28;20049;-64
2023/11/03 10:02:22;;;;;;;8.80;1.20;;;10.50;99.90;;;;;;5049680;28;20033;-65
2023/11/03 10:04:48;;;;;;;7.65;0.93;;;10.60;99.90;;;;;;5047543;28;20171;-65
2023/11/03 10:07:13;;;;;;;5.22;1.10;;;10.60;99.90;;;;;;5048268;28;20665;-64
2023/11/03 10:09:44;;;;;;;7.18;1.40;;;10.70;99.90;;;;;;5048846;28;20037;-65
2023/11/03 10:12:17;;;;;;;9.90;1.30;;;10.70;99.90;;;;;;5047810;28;20414;-64
2023/11/03 10:14:47;;;;;;;6.38;1.10;;;10.70;99.90;;;;;;5049044;28;20037;-64
2023/11/03 10:17:17;;;;;;;6.95;1.90;;;10.70;99.90;;;;;;5047055;28;20676;-64
2023/11/03 10:19:43;;;;;;;13.48;1.38;;;10.60;99.90;;;;;;5048401;28;20119;-64
2023/11/03 10:22:10;;;;;;;16.63;1.65;;;10.60;99.90;;;;;;5047753;28;20044;-65
2023/11/03 10:24:37;;;;;;;3.30;1.45;;;10.70;99.90;;;;;;5045813;28;20045;-65
2023/11/03 10:27:03;;;;;;;11.25;2.45;;;10.70;99.90;;;;;;5049246;28;20041;-64
2023/11/03 10:29:30;;;;;;;6.00;1.30;;;10.80;99.90;;;;;;5047649;28;20520;-64
2023/11/03 10:31:56;;;;;;;14.68;1.60;;;10.90;99.90;;;;;;5048649;28;20037;-64
2023/11/03 10:34:24;;;;;;;11.95;1.52;;;11.00;99.90;;;;;;5029653;28;20056;-65
2023/11/03 10:36:51;;;;;;;17.17;1.70;;;11.10;99.90;;;;;;5047083;28;20112;-64
2023/11/03 10:39:17;;;;;;;12.90;1.88;;;11.20;99.90;;;;;;5048573;28;20056;-64
2023/11/03 10:41:44;;;;;;;9.88;1.08;;;11.30;99.90;;;;;;5045795;28;20115;-64
2023/11/03 10:44:16;;;;;;;13.90;1.85;;;11.30;99.90;;;;;;5063843;28;20053;-64
2023/11/03 10:46:51;;;;;;;11.23;1.55;;;11.30;99.90;;;;;;5046877;28;20068;-64
2023/11/03 10:49:32;;;;;;;12.13;1.60;;;11.40;99.90;;;;;;5047975;28;20606;-64
2023/11/03 10:52:13;;;;;;;12.77;1.63;;;11.40;99.90;;;;;;5046314;28;20589;-64
2023/11/03 10:54:53;;;;;;;18.30;1.98;;;11.30;99.90;;;;;;5046875;28;20049;-64
2023/11/03 10:57:20;;;;;;;5.85;0.95;;;11.40;99.90;;;;;;5029496;28;20107;-64
2023/11/03 10:59:53;;;;;;;6.10;1.05;;;11.40;99.90;;;;;;5026955;28;20104;-64
2023/11/03 11:02:30;;;;;;;3.30;0.70;;;11.40;99.90;;;;;;5041040;28;20495;-64
2023/11/03 11:05:14;;;;;;;11.35;1.50;;;11.40;99.90;;;;;;5047381;28;20044;-64
2023/11/03 11:07:44;;;;;;;11.32;1.60;;;11.40;99.90;;;;;;5035515;28;20519;-65
2023/11/03 11:10:11;;;;;;;6.80;1.23;;;11.40;99.90;;;;;;5047886;28;20695;-64
2023/11/03 11:12:50;;;;;;;10.95;1.35;;;11.50;99.90;;;;;;5045077;28;20057;-64
2023/11/03 11:15:20;;;;;;;12.75;1.48;;;11.50;99.90;;;;;;5010896;28;20058;-64
2023/11/03 11:17:46;;;;;;;19.50;1.87;;;11.40;99.90;;;;;;5046185;28;20045;-64
2023/11/03 11:20:17;;;;;;;5.85;1.48;;;11.30;99.90;;;;;;5045873;28;20048;-64
2023/11/03 11:22:47;;;;;;;11.27;2.28;;;11.40;99.90;;;;;;5047462;28;20053;-64
2023/11/03 11:25:15;;;;;;;8.55;1.70;;;11.30;99.90;;;;;;5046573;28;20070;-65
2023/11/03 11:27:48;;;;;;;13.50;1.90;;;11.30;99.90;;;;;;5047282;28;20044;-64
2023/11/03 11:30:16;;;;;;;11.75;1.52;;;11.30;99.90;;;;;;5047339;28;20045;-64
2023/11/03 11:32:55;;;;;;;15.35;1.63;;;11.50;99.90;;;;;;5045348;28;20127;-64
2023/11/03 11:35:24;;;;;;;3.72;1.02;;;11.50;99.90;;;;;;5038635;28;20116;-64
2023/11/03 11:37:50;;;;;;;6.65;1.35;;;11.50;99.90;;;;;;5039784;28;20079;-63
2023/11/03 11:40:18;;;;;;;14.80;1.90;;;11.50;99.90;;;;;;5047342;28;20068;-64
2023/11/03 11:42:44;;;;;;;11.80;1.63;;;11.40;99.90;;;;;;5041029;28;20156;-64
2023/11/03 11:45:20;;;;;;;14.15;1.95;;;11.40;99.90;;;;;;5029758;28;20829;-64
2023/11/03 11:47:47;;;;;;;8.50;1.55;;;11.40;99.90;;;;;;5036336;28;20045;-64
2023/11/03 11:50:15;;;;;;;10.63;1.92;;;11.40;99.90;;;;;;5031658;28;20045;-64
2023/11/03 11:52:41;;;;;;;17.92;1.92;;;11.30;99.90;;;;;;5041200;28;20434;-64
2023/11/03 11:55:09;;;;;;;13.50;1.95;;;11.30;99.90;;;;;;5030422;28;20045;-64
2023/11/03 11:57:37;;;;;;;8.90;1.52;;;11.30;99.90;;;;;;5032731;28;20488;-64
2023/11/03 12:00:07;;;;;;;17.88;1.75;;;11.40;99.90;;;;;;5060290;28;20424;-64
2023/11/03 12:02:33;;;;;;;13.75;2.20;;;11.40;99.90;;;;;;5046322;28;20044;-64
2023/11/03 12:04:59;;;;;;;10.63;1.30;;;11.50;99.90;;;;;;5059898;28;20435;-64
2023/11/03 12:07:26;;;;;;;9.68;1.30;;;11.50;99.90;;;;;;5044894;28;20048;-65
2023/11/03 12:09:54;;;;;;;6.00;1.20;;;11.60;99.90;;;;;;5043337;28;20048;-64
2023/11/03 12:12:23;;;;;;;8.07;1.13;;;11.60;99.90;;;;;;5042126;28;20056;-64
2023/11/03 12:14:51;;;;;;;17.27;1.40;;;11.70;99.90;;;;;;5041189;28;20479;-64
2023/11/03 12:17:20;;;;;;;11.27;1.20;;;11.70;99.90;;;;;;5042608;28;20064;-64
2023/11/03 12:19:48;;;;;;;6.85;1.23;;;11.70;99.90;;;;;;5039682;28;20522;-64
2023/11/03 12:22:21;;;;;;;10.48;1.20;;;11.70;99.90;;;;;;5037917;28;20555;-64
2023/11/03 12:24:48;;;;;;;10.57;1.20;;;11.80;99.90;;;;;;5041775;28;20095;-64
2023/11/03 12:27:16;;;;;;;7.32;1.40;;;11.80;99.90;;;;;;5045147;28;20052;-64
2023/11/03 12:29:44;;;;;;;11.88;1.13;;;11.80;99.90;;;;;;5043673;28;20408;-64
2023/11/03 12:32:11;;;;;;;9.23;1.52;;;11.80;99.90;;;;;;5040370;28;20063;-64
2023/11/03 12:34:37;;;;;;;8.35;1.38;;;11.80;99.90;;;;;;5041739;28;20081;-63
2023/11/03 12:37:04;;;;;;;12.05;2.63;;;11.80;99.90;;;;;;5029919;28;20138;-64
2023/11/03 12:39:45;;;;;;;6.18;1.35;;;11.70;99.90;;;;;;5028510;28;20059;-64
2023/11/03 12:42:10;;;;;;;10.80;1.80;;;11.70;99.90;;;;;;5037768;28;20127;-63
2023/11/03 12:44:57;;;;;;;8.15;1.17;;;11.70;99.90;;;;;;5033913;28;20041;-64
2023/11/03 12:47:42;;;;;;;13.48;1.58;;;11.80;99.90;;;;;;5029313;28;20051;-64
2023/11/03 12:50:18;;;;;;;9.73;1.23;;;11.80;99.90;;;;;;5027753;28;20125;-64
2023/11/03 12:53:03;;;;;;;8.57;1.30;;;12.00;99.90;;;;;;5039643;28;20445;-64